Elk City, Kansas
Current Conditions -  °F | °C
As of 2:55 AM on Friday 31 Oct 2014 (Local Time) from KIDP Reporting Station
Clear Clear  
Wind Chill: 42°   Ceiling: Unl
Heat Index: 48°   Visibility: 10mi
Dew Point: 39°   Wind: 16mph
Humidity: 71%   Direction: 350°N
Pressure: 30.26"   Gusts: 24mph
Location:  37.29°N, 95.91°W
Report Text: KIDP 310755Z AUTO 35014G21KT 10SM CLR 09/04 A3026 RMK AO2
Loading
Personal Weather Stations






























Interactive Weather Map New forecast layout! Learn more

10-Day Weather Forecast

Advertisements
Track Severe Weather on mobile